CYLJ

Meadow Lake Airport

Meadow Lake, Saskatchewan, Canada
METAR CYLJ 191200Z 24002KT 15SM FEW093 M02/M02 A3015 RMK AC2 FROIN SLP235
Observed Flight Rules
Sep-19 @ 12:00 UTC (an hour ago) Visual Flight Rules
Wind Visibility Clouds
240° at 2 knots 15 miles
  • Few at 9,300' AGL
Temperatures Readings
Current -2°C / 28°F
Dewpoint -2°C / 28°F
Humidity 100%
Altimeter 30.15" Hg
Pressure 1023.5 hPa
Elevation 480
METAR CYLJ 191200Z 24002KT 15SM FEW093 M02/M02 A3015 RMK AC2 FROIN SLP235
Observed Flight Rules
Sep-19 @ 12:00 UTC
(an hour ago)
VFR
Wind Visibility
240° at 2 knots 15 miles
Clouds
  • Few at 9,300' AGL
Temperature Dewpoint
-2°C / 28°F -2°C / 28°F
Humidity Altimeter Pressure
100% 30.15" Hg 1023.5 hPa